Penrose, North Carolina
Current Conditions -  °F | °C
As of 11:10 AM on Sunday 23 Nov 2014 (Local Time) from KAVL Reporting Station
Moderate Rain Moderate Rain  
Wind Chill: 43°   Ceiling: 300
Heat Index: 43°   Visibility: 3mi
Dew Point: 41°   Wind: 0mph
Humidity: 93%   Direction: NA
Pressure: 30.13"   Gusts: NA
Location:  35.27°N, 82.64°W
Report Text: KAVL 231610Z 00000KT 3SM RA BR OVC003 06/05 A3013 RMK AO2 P0002 T00610050
Loading
Personal Weather Stations






























Interactive Weather Map New forecast layout! Learn more

10-Day Weather Forecast

Advertisements
Track Severe Weather on mobile